createdAt,value
2023-01-21T00:01:17.127Z,33.42
2023-01-21T00:03:44.622Z,31.95
2023-01-21T00:06:14.864Z,28.80
2023-01-21T00:08:42.251Z,30.63
2023-01-21T00:11:11.364Z,30.73
2023-01-21T00:13:38.652Z,31.33
2023-01-21T00:16:06.231Z,29.38
2023-01-21T00:18:33.615Z,32.03
2023-01-21T00:21:01.236Z,28.95
2023-01-21T00:23:28.496Z,33.17
2023-01-21T00:25:59.428Z,31.42
2023-01-21T00:28:28.388Z,31.38
2023-01-21T00:30:59.506Z,31.23
2023-01-21T00:33:27.136Z,28.77
2023-01-21T00:36:13.958Z,29.85
2023-01-21T00:38:41.333Z,30.25
2023-01-21T00:41:10.269Z,30.08
2023-01-21T00:43:37.509Z,28.98
2023-01-21T00:46:04.909Z,28.95
2023-01-21T00:48:32.420Z,28.40
2023-01-21T00:51:02.839Z,26.67
2023-01-21T00:53:30.987Z,27.80
2023-01-21T00:56:02.284Z,26.58
2023-01-21T00:58:30.414Z,28.70
2023-01-21T01:01:04.943Z,28.67
2023-01-21T01:03:32.881Z,27.48
2023-01-21T01:06:04.417Z,27.05
2023-01-21T01:08:31.875Z,28.55
2023-01-21T01:10:59.594Z,26.38
2023-01-21T01:13:27.788Z,28.60
2023-01-21T01:15:57.411Z,27.45
2023-01-21T01:18:26.184Z,27.20
2023-01-21T01:20:53.451Z,25.90
2023-01-21T01:23:20.784Z,26.00
2023-01-21T01:26:04.779Z,29.52
2023-01-21T01:28:32.317Z,25.55
2023-01-21T01:31:00.045Z,25.67
2023-01-21T01:33:27.928Z,25.67
2023-01-21T01:35:55.356Z,24.27
2023-01-21T01:38:23.402Z,28.10
2023-01-21T01:40:52.480Z,28.77
2023-01-21T01:43:21.252Z,27.63
2023-01-21T01:45:49.175Z,30.02
2023-01-21T01:48:21.360Z,31.33
2023-01-21T01:50:48.899Z,28.95
2023-01-21T01:53:18.007Z,26.77
2023-01-21T01:55:46.302Z,27.65
2023-01-21T01:58:14.688Z,26.52
2023-01-21T02:00:41.987Z,28.30
2023-01-21T02:03:28.333Z,28.10
2023-01-21T02:05:56.274Z,25.67
2023-01-21T02:08:24.789Z,29.10
2023-01-21T02:10:56.035Z,25.07
2023-01-21T02:13:27.179Z,27.30
2023-01-21T02:15:54.381Z,25.55
2023-01-21T02:18:31.323Z,27.55
2023-01-21T02:21:04.670Z,27.95
2023-01-21T02:23:46.974Z,28.10
2023-01-21T02:26:42.702Z,26.83
2023-01-21T02:29:28.698Z,26.58
2023-01-21T02:32:11.399Z,25.98
2023-01-21T02:34:48.023Z,28.27
2023-01-21T02:37:22.424Z,26.65
2023-01-21T02:39:55.887Z,24.88
2023-01-21T02:42:33.380Z,27.52
2023-01-21T02:45:06.547Z,24.70
2023-01-21T02:47:38.638Z,26.05
2023-01-21T02:50:09.176Z,25.85
2023-01-21T02:52:36.441Z,25.70
2023-01-21T02:55:04.126Z,24.08
2023-01-21T02:57:51.531Z,25.50
2023-01-21T03:00:21.269Z,23.65
2023-01-21T03:03:12.903Z,25.38
2023-01-21T03:05:43.975Z,24.23
2023-01-21T03:08:30.374Z,24.88
2023-01-21T03:11:04.509Z,23.60
2023-01-21T03:13:53.676Z,25.58
2023-01-21T03:16:43.278Z,24.95
2023-01-21T03:19:12.979Z,25.00
2023-01-21T03:21:40.668Z,24.40
2023-01-21T03:24:09.088Z,24.67
2023-01-21T03:26:39.496Z,21.23
2023-01-21T03:29:08.475Z,25.10
2023-01-21T03:31:37.954Z,24.90
2023-01-21T03:34:07.682Z,25.13
2023-01-21T03:36:53.873Z,26.98
2023-01-21T03:39:43.475Z,25.50
2023-01-21T03:42:10.939Z,28.20
2023-01-21T03:44:38.621Z,27.70
2023-01-21T03:47:16.842Z,28.85
2023-01-21T03:49:50.506Z,26.50
2023-01-21T03:52:19.203Z,25.83
2023-01-21T03:54:48.028Z,28.27
2023-01-21T03:57:15.353Z,29.70
2023-01-21T03:59:42.757Z,25.02
2023-01-21T04:02:10.135Z,27.42
2023-01-21T04:04:37.460Z,25.70
2023-01-21T04:07:04.764Z,28.27
2023-01-21T04:09:32.028Z,27.05
2023-01-21T04:12:00.404Z,25.45
2023-01-21T04:14:27.709Z,27.50
2023-01-21T04:16:55.739Z,28.40
2023-01-21T04:19:22.964Z,26.83
2023-01-21T04:21:50.232Z,26.67
2023-01-21T04:24:17.518Z,25.70
2023-01-21T04:26:44.825Z,25.83
2023-01-21T04:29:12.077Z,24.95
2023-01-21T04:31:39.375Z,25.83
2023-01-21T04:34:06.801Z,25.15
2023-01-21T04:36:34.124Z,24.48
2023-01-21T04:39:01.384Z,23.70
2023-01-21T04:41:28.642Z,26.23
2023-01-21T04:43:55.844Z,27.17
2023-01-21T04:46:23.144Z,24.58
2023-01-21T04:48:50.406Z,27.77
2023-01-21T04:51:17.748Z,25.20
2023-01-21T04:53:45.004Z,25.10
2023-01-21T04:56:12.230Z,25.98
2023-01-21T04:58:39.440Z,27.02
2023-01-21T05:01:06.799Z,29.08
2023-01-21T05:03:34.141Z,25.80
2023-01-21T05:06:01.372Z,26.70
2023-01-21T05:08:28.668Z,26.15
2023-01-21T05:10:55.872Z,28.85
2023-01-21T05:13:23.198Z,27.15
2023-01-21T05:15:50.516Z,26.10
2023-01-21T05:18:17.763Z,25.25
2023-01-21T05:20:44.991Z,24.58
2023-01-21T05:23:12.276Z,26.42
2023-01-21T05:25:39.552Z,27.15
2023-01-21T05:28:06.787Z,27.00
2023-01-21T05:30:34.077Z,24.73
2023-01-21T05:33:01.357Z,25.30
2023-01-21T05:35:28.657Z,23.98
2023-01-21T05:37:56.131Z,24.27
2023-01-21T05:40:23.383Z,23.63
2023-01-21T05:42:50.605Z,22.60
2023-01-21T05:45:17.832Z,25.98
2023-01-21T05:47:45.039Z,27.55
2023-01-21T05:50:12.756Z,25.50
2023-01-21T05:52:40.039Z,24.20
2023-01-21T05:55:07.783Z,25.67
2023-01-21T05:57:35.173Z,25.38
2023-01-21T06:00:02.589Z,26.90
2023-01-21T06:02:32.109Z,24.30
2023-01-21T06:04:59.469Z,21.75
2023-01-21T06:07:26.802Z,23.52
2023-01-21T06:09:55.029Z,24.90
2023-01-21T06:12:23.887Z,26.67
2023-01-21T06:14:52.055Z,23.85
2023-01-21T06:17:19.288Z,23.73
2023-01-21T06:19:46.565Z,25.58
2023-01-21T06:22:17.284Z,26.40
2023-01-21T06:24:44.626Z,24.60
2023-01-21T06:27:11.907Z,24.58
2023-01-21T06:29:39.141Z,24.92
2023-01-21T06:32:06.712Z,24.40
2023-01-21T06:34:34.062Z,24.48
2023-01-21T06:37:01.265Z,23.02
2023-01-21T06:39:28.491Z,26.83
2023-01-21T06:41:55.720Z,25.00
2023-01-21T06:44:23.511Z,25.83
2023-01-21T06:47:00.712Z,25.70
2023-01-21T06:49:28.628Z,24.30
2023-01-21T06:51:56.431Z,24.67
2023-01-21T06:54:23.743Z,25.13
2023-01-21T06:56:50.994Z,24.00
2023-01-21T06:59:18.227Z,26.40
2023-01-21T07:01:45.573Z,28.27
2023-01-21T07:04:12.843Z,23.88
2023-01-21T07:06:40.564Z,26.27
2023-01-21T07:09:08.184Z,28.40
2023-01-21T07:11:35.935Z,26.08
2023-01-21T07:14:03.169Z,25.67
2023-01-21T07:16:30.476Z,26.58
2023-01-21T07:18:57.737Z,24.40
2023-01-21T07:21:25.764Z,27.23
2023-01-21T07:23:53.547Z,26.48
2023-01-21T07:26:21.143Z,26.50
2023-01-21T07:28:48.491Z,25.33
2023-01-21T07:31:15.862Z,24.63
2023-01-21T07:33:43.287Z,26.58
2023-01-21T07:36:10.593Z,26.38
2023-01-21T07:38:37.891Z,26.83
2023-01-21T07:41:05.188Z,27.45
2023-01-21T07:43:32.410Z,27.05
2023-01-21T07:46:00.417Z,25.63
2023-01-21T07:48:27.710Z,25.95
2023-01-21T07:50:57.998Z,31.58
2023-01-21T07:53:25.524Z,28.77
2023-01-21T07:55:53.180Z,27.83
2023-01-21T07:58:20.491Z,31.40
2023-01-21T08:00:47.745Z,28.67
2023-01-21T08:03:15.147Z,31.00
2023-01-21T08:05:42.454Z,36.92
2023-01-21T08:08:09.719Z,32.33
2023-01-21T08:10:37.005Z,39.03
2023-01-21T08:13:04.481Z,35.15
2023-01-21T08:15:31.738Z,31.35
2023-01-21T08:17:58.968Z,38.92
2023-01-21T08:20:26.400Z,33.42
2023-01-21T08:22:53.712Z,34.67
2023-01-21T08:25:20.979Z,37.47
2023-01-21T08:27:48.182Z,37.50
2023-01-21T08:30:16.019Z,34.20
2023-01-21T08:32:43.321Z,34.72
2023-01-21T08:35:10.748Z,34.03
2023-01-21T08:37:39.646Z,30.50
2023-01-21T08:40:07.301Z,32.20
2023-01-21T08:42:34.537Z,28.85
2023-01-21T08:45:01.806Z,30.88
2023-01-21T08:47:29.110Z,27.95
2023-01-21T08:49:56.355Z,24.95
2023-01-21T08:52:23.691Z,27.58
2023-01-21T08:54:50.996Z,25.40
2023-01-21T08:57:18.300Z,27.55
2023-01-21T08:59:45.705Z,28.30
2023-01-21T09:02:13.116Z,27.73
2023-01-21T09:04:40.348Z,29.02
2023-01-21T09:07:07.673Z,26.02
2023-01-21T09:09:34.999Z,26.98
2023-01-21T09:12:02.325Z,28.33
2023-01-21T09:14:30.613Z,22.40
2023-01-21T09:16:58.136Z,22.55
2023-01-21T09:19:25.589Z,23.48
2023-01-21T09:21:54.404Z,23.48
2023-01-21T09:24:21.964Z,26.13
2023-01-21T09:26:49.181Z,26.60
2023-01-21T09:29:16.479Z,26.77
2023-01-21T09:31:43.833Z,26.23
2023-01-21T09:34:11.780Z,29.10
2023-01-21T09:36:39.483Z,31.55
2023-01-21T09:39:08.039Z,29.52
2023-01-21T09:41:40.305Z,21.77
2023-01-21T09:44:10.289Z,27.98
2023-01-21T09:46:47.615Z,28.23
2023-01-21T09:49:27.289Z,25.80
2023-01-21T09:52:06.578Z,26.77
2023-01-21T09:57:08.225Z,28.52
2023-01-21T09:59:44.140Z,30.70
2023-01-21T10:02:21.470Z,27.52
2023-01-21T10:04:52.730Z,29.35
2023-01-21T10:07:25.731Z,30.95
2023-01-21T10:10:07.004Z,27.45
2023-01-21T10:12:52.826Z,28.65
2023-01-21T10:15:23.294Z,27.98
2023-01-21T10:18:04.415Z,27.02
2023-01-21T10:20:40.100Z,25.83
2023-01-21T10:23:11.907Z,26.52
2023-01-21T10:25:39.875Z,27.30
2023-01-21T10:28:36.628Z,23.63
2023-01-21T10:31:08.047Z,24.27
2023-01-21T10:33:35.470Z,22.98
2023-01-21T10:36:08.928Z,24.73
2023-01-21T10:38:55.152Z,24.52
2023-01-21T10:41:22.336Z,25.83
2023-01-21T10:44:06.067Z,30.10
2023-01-21T10:46:37.901Z,29.60
2023-01-21T10:49:23.315Z,30.77
2023-01-21T10:51:54.228Z,28.90
2023-01-21T10:54:22.648Z,25.70
2023-01-21T10:56:59.779Z,27.23
2023-01-21T10:59:31.045Z,28.90
2023-01-21T11:02:09.170Z,29.70
2023-01-21T11:04:41.626Z,26.17
2023-01-21T11:07:10.358Z,25.52
2023-01-21T11:09:39.567Z,23.77
2023-01-21T11:12:06.916Z,28.85
2023-01-21T11:14:34.802Z,24.63
2023-01-21T11:17:02.462Z,23.80
2023-01-21T11:19:31.070Z,23.90
2023-01-21T11:22:20.864Z,23.67
2023-01-21T11:24:49.328Z,23.88
2023-01-21T11:27:21.631Z,20.83
2023-01-21T11:29:49.751Z,23.58
2023-01-21T11:32:18.983Z,24.00
2023-01-21T11:34:47.347Z,20.77
2023-01-21T11:37:25.965Z,23.65
2023-01-21T11:40:05.479Z,21.20
2023-01-21T11:42:32.748Z,23.90
2023-01-21T11:45:04.313Z,23.90
2023-01-21T11:47:37.234Z,24.35
2023-01-21T11:50:10.786Z,24.75
2023-01-21T11:52:38.087Z,26.95
2023-01-21T11:55:17.779Z,23.83
2023-01-21T11:57:49.549Z,24.92
2023-01-21T12:00:21.074Z,22.58
2023-01-21T12:02:59.194Z,22.20
2023-01-21T12:05:26.401Z,24.08
2023-01-21T12:07:53.738Z,23.55
2023-01-21T12:10:31.754Z,21.90
2023-01-21T12:13:02.251Z,23.55
2023-01-21T12:15:35.348Z,26.33
2023-01-21T12:18:12.273Z,24.88
2023-01-21T12:20:48.161Z,27.02
2023-01-21T12:23:35.795Z,25.48
2023-01-21T12:26:29.197Z,22.98
2023-01-21T12:28:59.539Z,20.92
2023-01-21T12:31:32.678Z,24.25
2023-01-21T12:34:04.730Z,25.00
2023-01-21T12:36:34.881Z,24.15
2023-01-21T12:39:14.409Z,25.58
2023-01-21T12:41:43.771Z,27.17
2023-01-21T12:46:40.983Z,24.45
2023-01-21T12:49:24.555Z,24.55
2023-01-21T12:52:03.792Z,24.33
2023-01-21T12:54:39.621Z,20.05
2023-01-21T12:57:24.989Z,24.00
2023-01-21T13:00:04.248Z,37.40
2023-01-21T13:04:58.667Z,23.88
2023-01-21T13:07:25.918Z,25.80
2023-01-21T13:10:13.222Z,23.05
2023-01-21T13:12:42.065Z,23.65
2023-01-21T13:15:18.565Z,24.50
2023-01-21T13:17:49.589Z,22.70
2023-01-21T13:20:18.042Z,24.65
2023-01-21T13:22:50.353Z,20.75
2023-01-21T13:25:17.993Z,21.15
2023-01-21T13:27:52.568Z,20.40
2023-01-21T13:30:31.306Z,28.90
2023-01-21T13:33:24.981Z,18.77
2023-01-21T13:36:01.348Z,23.15
2023-01-21T13:38:28.686Z,21.40
2023-01-21T13:40:55.940Z,22.58
2023-01-21T13:43:30.056Z,21.05
2023-01-21T13:46:00.504Z,21.30
2023-01-21T13:48:40.219Z,28.50
2023-01-21T13:51:14.889Z,24.13
2023-01-21T13:54:00.052Z,26.73
2023-01-21T13:56:30.113Z,20.65
2023-01-21T13:58:59.427Z,22.35
2023-01-21T14:01:38.919Z,19.35
2023-01-21T14:04:11.100Z,21.02
2023-01-21T14:06:41.339Z,24.58
2023-01-21T14:09:13.730Z,25.52
2023-01-21T14:11:54.276Z,21.70
2023-01-21T14:14:34.281Z,26.77
2023-01-21T14:17:01.540Z,24.58
2023-01-21T14:19:35.131Z,27.40
2023-01-21T14:22:11.357Z,21.75
2023-01-21T14:24:46.321Z,18.10
2023-01-21T14:27:19.592Z,16.55
2023-01-21T14:29:54.039Z,19.35
2023-01-21T14:32:26.430Z,20.35
2023-01-21T14:35:06.806Z,21.02
2023-01-21T14:37:52.983Z,22.75
2023-01-21T14:40:31.164Z,22.25
2023-01-21T14:42:59.205Z,25.42
2023-01-21T14:45:46.487Z,20.95
2023-01-21T14:48:32.897Z,23.60
2023-01-21T14:51:06.385Z,21.35
2023-01-21T14:53:42.571Z,20.20
2023-01-21T14:56:16.273Z,19.48
2023-01-21T14:58:47.432Z,23.08
2023-01-21T15:01:33.442Z,21.63
2023-01-21T15:04:04.344Z,20.85
2023-01-21T15:06:32.272Z,21.30
2023-01-21T15:09:01.129Z,21.83
2023-01-21T15:11:35.055Z,18.23
2023-01-21T15:14:07.340Z,17.48
2023-01-21T15:16:35.966Z,20.13
2023-01-21T15:19:09.449Z,18.25
2023-01-21T15:21:36.733Z,19.55
2023-01-21T15:24:20.790Z,19.25
2023-01-21T15:27:06.946Z,20.95
2023-01-21T15:29:35.417Z,17.60
2023-01-21T15:32:22.374Z,19.00
2023-01-21T15:34:51.704Z,17.17
2023-01-21T15:37:21.774Z,19.80
2023-01-21T15:39:52.260Z,20.05
2023-01-21T15:42:25.396Z,17.63
2023-01-21T15:45:00.124Z,19.80
2023-01-21T15:47:45.832Z,20.70
2023-01-21T15:50:19.282Z,21.60
2023-01-21T15:52:46.505Z,20.85
2023-01-21T15:55:17.024Z,20.05
2023-01-21T15:57:47.444Z,20.35
2023-01-21T16:00:33.167Z,16.92
2023-01-21T16:03:18.559Z,19.48
2023-01-21T16:06:10.364Z,19.52
2023-01-21T16:08:40.815Z,20.88
2023-01-21T16:11:08.112Z,21.83
2023-01-21T16:13:46.944Z,18.25
2023-01-21T16:16:42.263Z,18.63
2023-01-21T16:19:13.758Z,19.13
2023-01-21T16:21:44.273Z,18.42
2023-01-21T16:24:17.127Z,19.00
2023-01-21T16:26:44.561Z,17.98
2023-01-21T16:29:15.570Z,19.02
2023-01-21T16:31:50.745Z,18.48
2023-01-21T16:34:25.242Z,19.80
2023-01-21T16:36:52.663Z,19.30
2023-01-21T16:39:20.289Z,23.02
2023-01-21T16:41:59.928Z,19.27
2023-01-21T16:44:27.306Z,19.65
2023-01-21T16:46:54.650Z,21.40
2023-01-21T16:49:22.000Z,19.40
2023-01-21T16:51:52.082Z,20.38
2023-01-21T16:54:22.149Z,21.80
2023-01-21T16:56:57.038Z,23.73
2023-01-21T16:59:27.498Z,24.08
2023-01-21T17:01:55.511Z,26.08
2023-01-21T17:04:22.883Z,26.23
2023-01-21T17:06:50.137Z,23.73
2023-01-21T17:09:38.008Z,24.17
2023-01-21T17:12:07.795Z,24.42
2023-01-21T17:14:35.883Z,23.35
2023-01-21T17:17:05.006Z,22.52
2023-01-21T17:19:37.067Z,22.92
2023-01-21T17:22:15.086Z,20.55
2023-01-21T17:24:49.172Z,40.47
2023-01-21T17:27:18.903Z,35.55
2023-01-21T17:29:46.256Z,20.83
2023-01-21T17:32:25.762Z,20.25
2023-01-21T17:35:12.857Z,29.20
2023-01-21T17:37:45.756Z,35.50
2023-01-21T17:40:34.544Z,44.85
2023-01-21T17:43:10.142Z,121.70
2023-01-21T17:45:38.541Z,121.70
2023-01-21T17:48:13.323Z,97.93
2023-01-21T17:50:46.270Z,71.05
2023-01-21T17:53:20.366Z,60.00
2023-01-21T17:56:17.161Z,168.35
2023-01-21T17:58:46.145Z,80.88
2023-01-21T18:01:13.564Z,43.83
2023-01-21T18:03:40.818Z,33.78
2023-01-21T18:06:14.711Z,33.58
2023-01-21T18:08:42.087Z,30.95
2023-01-21T18:11:09.748Z,24.92
2023-01-21T18:13:37.046Z,23.42
2023-01-21T18:16:04.451Z,22.48
2023-01-21T18:18:33.491Z,23.10
2023-01-21T18:21:01.915Z,21.92
2023-01-21T18:23:30.050Z,20.80
2023-01-21T18:25:57.401Z,23.25
2023-01-21T18:28:26.299Z,24.67
2023-01-21T18:30:57.965Z,27.77
2023-01-21T18:33:25.724Z,25.50
2023-01-21T18:35:53.427Z,22.15
2023-01-21T18:38:27.070Z,21.88
2023-01-21T18:40:57.610Z,21.77
2023-01-21T18:43:27.976Z,21.88
2023-01-21T18:45:55.205Z,21.15
2023-01-21T18:48:23.733Z,19.70
2023-01-21T18:50:50.977Z,21.50
2023-01-21T18:53:18.304Z,22.42
2023-01-21T18:55:47.897Z,23.33
2023-01-21T18:58:15.122Z,21.85
2023-01-21T19:00:42.435Z,20.75
2023-01-21T19:03:10.698Z,21.67
2023-01-21T19:05:39.116Z,21.50
2023-01-21T19:08:11.760Z,23.33
2023-01-21T19:10:39.047Z,26.83
2023-01-21T19:13:06.406Z,44.15
2023-01-21T19:15:33.639Z,30.27
2023-01-21T19:18:00.974Z,26.88
2023-01-21T19:20:29.230Z,28.25
2023-01-21T19:22:56.831Z,27.10
2023-01-21T19:25:25.765Z,24.52
2023-01-21T19:27:54.969Z,25.02
2023-01-21T19:30:45.036Z,24.23
2023-01-21T19:33:12.844Z,25.23
2023-01-21T19:35:43.056Z,23.00
2023-01-21T19:38:11.919Z,23.80
2023-01-21T19:40:39.206Z,22.08
2023-01-21T19:43:06.673Z,23.55
2023-01-21T19:45:34.104Z,24.75
2023-01-21T19:48:01.372Z,22.75
2023-01-21T19:50:28.676Z,26.20
2023-01-21T19:52:55.929Z,26.55
2023-01-21T19:55:26.586Z,25.85
2023-01-21T19:57:58.163Z,24.67
2023-01-21T20:00:33.046Z,25.25
2023-01-21T20:03:00.410Z,25.38
2023-01-21T20:05:29.435Z,26.35
2023-01-21T20:07:56.772Z,26.45
2023-01-21T20:10:25.515Z,30.92
2023-01-21T20:12:53.097Z,28.08
2023-01-21T20:15:22.803Z,28.63
2023-01-21T20:17:52.550Z,26.95
2023-01-21T20:20:21.358Z,28.48
2023-01-21T20:22:48.952Z,33.65
2023-01-21T20:25:20.950Z,31.10
2023-01-21T20:27:58.129Z,33.95
2023-01-21T20:30:26.723Z,31.45
2023-01-21T20:32:54.234Z,21.48
2023-01-21T20:35:22.557Z,27.58
2023-01-21T20:37:51.166Z,29.42
2023-01-21T20:40:20.137Z,26.75
2023-01-21T20:42:47.841Z,31.02
2023-01-21T20:45:16.022Z,27.10
2023-01-21T20:47:50.058Z,27.70
2023-01-21T20:50:18.251Z,23.60
2023-01-21T20:52:45.867Z,27.13
2023-01-21T20:55:13.612Z,24.70
2023-01-21T20:57:41.282Z,26.95
2023-01-21T21:00:13.611Z,27.13
2023-01-21T21:02:40.909Z,29.05
2023-01-21T21:05:08.414Z,25.38
2023-01-21T21:07:35.688Z,25.95
2023-01-21T21:10:02.982Z,24.08
2023-01-21T21:12:30.352Z,25.75
2023-01-21T21:14:57.566Z,24.02
2023-01-21T21:17:24.907Z,24.48
2023-01-21T21:19:52.148Z,26.00
2023-01-21T21:22:19.552Z,24.08
2023-01-21T21:24:46.857Z,22.42
2023-01-21T21:27:14.192Z,24.13
2023-01-21T21:29:41.417Z,23.90
2023-01-21T21:32:12.496Z,22.92
2023-01-21T21:34:40.039Z,22.23
2023-01-21T21:37:07.817Z,23.85
2023-01-21T21:39:35.168Z,23.77
2023-01-21T21:42:21.095Z,24.02
2023-01-21T21:44:48.279Z,24.30
2023-01-21T21:47:34.164Z,24.52
2023-01-21T21:50:01.391Z,26.55
2023-01-21T21:52:30.245Z,25.45
2023-01-21T21:54:57.440Z,22.65
2023-01-21T21:57:24.674Z,24.13
2023-01-21T21:59:51.985Z,22.17
2023-01-21T22:02:20.226Z,23.48
2023-01-21T22:04:47.578Z,16.50
2023-01-21T22:07:14.819Z,20.85
2023-01-21T22:09:42.082Z,19.92
2023-01-21T22:12:09.387Z,18.92
2023-01-21T22:14:36.681Z,17.67
2023-01-21T22:17:04.011Z,16.85
2023-01-21T22:19:31.242Z,17.90
2023-01-21T22:21:58.734Z,17.48
2023-01-21T22:24:25.988Z,19.02
2023-01-21T22:26:53.215Z,17.48
2023-01-21T22:29:20.981Z,17.55
2023-01-21T22:31:48.391Z,17.70
2023-01-21T22:34:15.758Z,19.10
2023-01-21T22:36:47.074Z,20.42
2023-01-21T22:39:14.608Z,20.35
2023-01-21T22:41:41.865Z,18.08
2023-01-21T22:44:09.225Z,18.05
2023-01-21T22:46:36.574Z,17.27
2023-01-21T22:49:03.977Z,18.13
2023-01-21T22:51:31.319Z,17.73
2023-01-21T22:54:00.212Z,19.38
2023-01-21T22:56:49.704Z,16.10
2023-01-21T22:59:15.068Z,17.67
2023-01-21T23:01:42.510Z,18.73
2023-01-21T23:04:10.107Z,20.23
2023-01-21T23:06:37.919Z,20.65
2023-01-21T23:09:06.702Z,21.52
2023-01-21T23:11:36.797Z,20.40
2023-01-21T23:14:04.133Z,19.25
2023-01-21T23:16:31.375Z,21.80
2023-01-21T23:18:58.912Z,20.35
2023-01-21T23:21:26.142Z,17.73
2023-01-21T23:23:53.446Z,21.52
2023-01-21T23:26:20.969Z,20.10
2023-01-21T23:28:48.335Z,19.83
2023-01-21T23:31:17.112Z,22.65
2023-01-21T23:33:44.662Z,21.45
2023-01-21T23:36:13.605Z,21.33
2023-01-21T23:38:41.430Z,20.88
2023-01-21T23:41:10.058Z,23.67
2023-01-21T23:43:37.631Z,22.10
2023-01-21T23:46:05.942Z,23.98
2023-01-21T23:48:33.274Z,17.88
2023-01-21T23:51:04.544Z,23.13
2023-01-21T23:53:32.627Z,22.38
2023-01-21T23:56:20.559Z,23.48
2023-01-21T23:58:48.138Z,22.48
